Time;durP1;ratioP1;P1;durP2;ratioP2;P2;SDS_P1;SDS_P2;PMS_P1;PMS_P2;Temp;Humidity;BMP_temperature;BMP_pressure;BME280_temperature;BME280_humidity;BME280_pressure;Samples;Min_cycle;Max_cycle;Signal;HPM_P1;HPM_P2
2022/11/10 00:00:45;;;;;;;13.98;3.05;;;9.60;99.90;;;;;;5108848;27;20393;-68
2022/11/10 00:03:11;;;;;;;20.58;4.90;;;9.60;99.90;;;;;;5110001;27;20039;-70
2022/11/10 00:05:37;;;;;;;16.08;3.38;;;9.60;99.90;;;;;;5108507;28;20490;-67
2022/11/10 00:08:05;;;;;;;14.25;4.03;;;9.60;99.90;;;;;;5105288;28;20085;-69
2022/11/10 00:10:32;;;;;;;15.68;3.70;;;9.60;99.90;;;;;;5108299;27;20060;-68
2022/11/10 00:13:01;;;;;;;12.45;4.13;;;9.50;99.90;;;;;;5109879;27;20035;-67
2022/11/10 00:18:11;;;;;;;14.90;3.63;;;9.50;99.90;;;;;;5108642;28;20074;-68
2022/11/10 00:20:37;;;;;;;13.20;3.63;;;9.50;99.90;;;;;;5109091;28;20272;-69
2022/11/10 00:23:03;;;;;;;13.55;3.70;;;9.50;99.90;;;;;;5110542;28;20450;-67
2022/11/10 00:25:30;;;;;;;10.90;3.08;;;9.40;99.90;;;;;;5107626;28;20092;-70
2022/11/10 00:27:58;;;;;;;13.77;3.45;;;9.40;99.90;;;;;;5106584;28;20082;-70
2022/11/10 00:30:24;;;;;;;11.63;3.22;;;9.40;99.90;;;;;;5105063;28;20059;-68
2022/11/10 00:32:50;;;;;;;18.13;3.90;;;9.40;99.90;;;;;;5110588;28;20047;-68
2022/11/10 00:35:16;;;;;;;15.10;3.47;;;9.40;99.90;;;;;;5097025;28;20393;-69
2022/11/10 00:37:41;;;;;;;19.42;3.60;;;9.40;99.90;;;;;;5094183;28;20050;-69
2022/11/10 00:40:08;;;;;;;14.82;3.65;;;9.40;99.90;;;;;;5106018;28;20035;-67
2022/11/10 00:42:33;;;;;;;14.75;4.10;;;9.40;99.90;;;;;;5102618;28;20585;-69
2022/11/10 00:44:59;;;;;;;13.68;3.70;;;9.40;99.90;;;;;;5101430;28;20071;-67
2022/11/10 00:47:25;;;;;;;11.52;3.60;;;9.40;99.90;;;;;;5105895;28;20129;-67
2022/11/10 00:49:50;;;;;;;13.55;3.63;;;9.30;99.90;;;;;;5110589;27;20027;-69
2022/11/10 00:52:16;;;;;;;15.70;3.80;;;9.30;99.90;;;;;;5101716;28;20043;-67
2022/11/10 00:54:41;;;;;;;11.32;3.47;;;9.40;99.90;;;;;;5109981;28;20119;-70
2022/11/10 00:57:07;;;;;;;12.52;3.90;;;9.30;99.90;;;;;;5109313;28;20063;-69
2022/11/10 00:59:32;;;;;;;17.77;4.35;;;9.30;99.90;;;;;;5109829;28;20485;-66
2022/11/10 01:01:58;;;;;;;18.17;4.40;;;9.30;99.90;;;;;;5104613;28;20039;-68
2022/11/10 01:04:24;;;;;;;15.82;3.75;;;9.30;99.90;;;;;;5110750;28;20043;-68
2022/11/10 01:06:51;;;;;;;17.67;4.50;;;9.30;99.90;;;;;;5094495;28;20055;-68
2022/11/10 01:09:17;;;;;;;18.05;4.30;;;9.30;99.90;;;;;;5109055;28;20770;-68
2022/11/10 01:11:42;;;;;;;14.85;3.92;;;9.30;99.90;;;;;;5105544;28;20074;-67
2022/11/10 01:14:08;;;;;;;16.25;4.00;;;9.30;99.90;;;;;;5105308;28;20043;-68
2022/11/10 01:16:34;;;;;;;16.55;3.83;;;9.30;99.90;;;;;;5123013;28;20035;-69
2022/11/10 01:19:01;;;;;;;16.83;4.05;;;9.30;99.90;;;;;;5106913;28;20050;-68
2022/11/10 01:21:27;;;;;;;15.43;4.15;;;9.20;99.90;;;;;;5107250;28;20039;-68
2022/11/10 01:23:54;;;;;;;21.63;4.30;;;9.30;99.90;;;;;;5105817;28;20123;-69
2022/11/10 01:26:20;;;;;;;15.98;4.35;;;9.20;99.90;;;;;;5113753;27;20187;-68
2022/11/10 01:28:46;;;;;;;16.90;3.92;;;9.20;99.90;;;;;;5114051;27;20110;-68
2022/11/10 01:31:18;;;;;;;14.93;3.88;;;9.20;99.90;;;;;;5113347;27;20049;-67
2022/11/10 01:33:44;;;;;;;20.35;3.45;;;9.20;99.90;;;;;;5107935;27;20059;-67
2022/11/10 01:36:11;;;;;;;16.70;3.15;;;9.20;99.90;;;;;;5105373;27;20054;-70
2022/11/10 01:38:39;;;;;;;17.90;3.83;;;9.30;99.90;;;;;;5106599;27;20481;-69
2022/11/10 01:41:08;;;;;;;12.52;3.30;;;9.20;99.90;;;;;;5110054;27;20142;-68
2022/11/10 01:43:34;;;;;;;17.23;3.72;;;9.20;99.90;;;;;;5112041;27;20049;-69
2022/11/10 01:46:01;;;;;;;16.77;3.17;;;9.20;99.90;;;;;;5107184;27;20475;-70
2022/11/10 01:48:42;;;;;;;14.15;3.40;;;9.20;99.90;;;;;;5113851;27;20046;-66
2022/11/10 01:51:21;;;;;;;13.43;2.90;;;9.30;99.90;;;;;;5111051;27;20102;-70
2022/11/10 01:53:55;;;;;;;14.75;3.22;;;9.30;99.90;;;;;;5109467;27;20051;-68
2022/11/10 01:56:22;;;;;;;14.77;3.20;;;9.30;99.90;;;;;;5105273;27;20127;-69
2022/11/10 01:58:55;;;;;;;11.55;2.88;;;9.30;99.90;;;;;;5112144;27;20035;-69
2022/11/10 02:01:23;;;;;;;16.60;2.67;;;9.30;99.90;;;;;;5109538;27;20107;-68
2022/11/10 02:03:56;;;;;;;10.93;2.58;;;9.30;99.90;;;;;;5109063;27;20036;-69
2022/11/10 02:06:25;;;;;;;14.48;2.63;;;9.30;99.90;;;;;;5103698;27;20147;-69
2022/11/10 02:08:52;;;;;;;11.77;4.30;;;9.40;99.90;;;;;;5091359;27;20322;-67
2022/11/10 02:11:18;;;;;;;12.35;2.83;;;9.40;99.90;;;;;;5111256;27;20111;-69
2022/11/10 02:13:44;;;;;;;15.23;3.20;;;9.40;99.90;;;;;;5113593;27;20516;-68
2022/11/10 02:16:11;;;;;;;16.55;4.32;;;9.40;99.90;;;;;;5108292;27;20127;-69
2022/11/10 02:18:37;;;;;;;14.50;3.97;;;9.40;99.90;;;;;;5111708;27;20054;-67
2022/11/10 02:21:07;;;;;;;13.23;3.75;;;9.40;99.90;;;;;;5090486;27;20035;-67
2022/11/10 02:23:36;;;;;;;20.17;4.40;;;9.50;99.90;;;;;;5112923;27;20043;-68
2022/11/10 02:26:04;;;;;;;17.65;5.53;;;9.50;99.90;;;;;;5108367;27;20046;-68
2022/11/10 02:28:37;;;;;;;16.23;4.60;;;9.50;99.90;;;;;;5112490;27;20168;-69
2022/11/10 02:31:04;;;;;;;18.40;4.65;;;9.60;99.90;;;;;;5109385;27;20058;-68
2022/11/10 02:33:30;;;;;;;19.88;4.78;;;9.60;99.90;;;;;;5112552;27;20405;-67
2022/11/10 02:35:56;;;;;;;20.25;5.10;;;9.60;99.90;;;;;;5110206;27;20397;-67
2022/11/10 02:38:21;;;;;;;23.20;5.53;;;9.60;99.90;;;;;;5105796;27;20126;-69
2022/11/10 02:40:50;;;;;;;18.52;5.15;;;9.60;99.90;;;;;;5108994;27;20138;-69
2022/11/10 02:43:17;;;;;;;17.45;4.57;;;9.60;99.90;;;;;;5111411;27;20472;-67
2022/11/10 02:45:43;;;;;;;20.63;5.72;;;9.70;99.90;;;;;;5094495;27;20525;-66
2022/11/10 02:48:10;;;;;;;15.32;5.13;;;9.60;99.90;;;;;;5112463;27;20068;-68
2022/11/10 02:50:36;;;;;;;18.35;5.82;;;9.60;99.90;;;;;;5126028;27;20039;-69
2022/11/10 02:53:02;;;;;;;17.75;5.93;;;9.60;99.90;;;;;;5110116;27;20482;-67
2022/11/10 02:55:28;;;;;;;18.38;5.57;;;9.60;99.90;;;;;;5108874;27;20035;-70
2022/11/10 02:57:53;;;;;;;19.05;5.95;;;9.60;99.90;;;;;;5108648;27;20053;-68
2022/11/10 03:00:19;;;;;;;19.70;5.25;;;9.60;99.90;;;;;;5105309;27;20043;-69
2022/11/10 03:02:45;;;;;;;19.55;5.75;;;9.60;99.90;;;;;;5103030;27;20046;-68
2022/11/10 03:05:11;;;;;;;22.73;6.35;;;9.60;99.90;;;;;;5106301;27;20050;-68
2022/11/10 03:07:37;;;;;;;21.80;5.70;;;9.60;99.90;;;;;;5104664;27;20123;-70
2022/11/10 03:10:03;;;;;;;14.35;5.25;;;9.60;99.90;;;;;;5105140;27;20465;-70
2022/11/10 03:12:29;;;;;;;21.25;5.55;;;9.60;99.90;;;;;;5103360;27;20047;-68
2022/11/10 03:14:55;;;;;;;20.27;5.13;;;9.60;99.90;;;;;;5110314;27;20035;-68
2022/11/10 03:17:20;;;;;;;25.58;5.97;;;9.60;99.90;;;;;;5111709;27;20086;-68
2022/11/10 03:19:46;;;;;;;21.00;5.45;;;9.60;99.90;;;;;;5091227;27;20543;-69
2022/11/10 03:22:11;;;;;;;18.02;5.35;;;9.60;99.90;;;;;;5108134;27;20086;-67
2022/11/10 03:24:37;;;;;;;17.77;5.05;;;9.60;99.90;;;;;;5110626;27;20050;-69
2022/11/10 03:27:03;;;;;;;15.48;5.05;;;9.60;99.90;;;;;;5104604;27;20039;-69
2022/11/10 03:29:28;;;;;;;19.23;5.50;;;9.60;99.90;;;;;;5109600;27;20062;-68
2022/11/10 03:31:54;;;;;;;21.30;5.15;;;9.60;99.90;;;;;;5092038;27;20045;-67
2022/11/10 03:34:19;;;;;;;19.65;5.72;;;9.60;99.90;;;;;;5104936;27;20060;-69
2022/11/10 03:36:45;;;;;;;15.20;4.95;;;9.50;99.90;;;;;;5108478;27;20031;-68
2022/11/10 03:39:11;;;;;;;20.15;5.30;;;9.50;99.90;;;;;;5105169;27;20035;-68
2022/11/10 03:41:36;;;;;;;20.45;5.25;;;9.50;99.90;;;;;;5100988;27;20420;-69
2022/11/10 03:44:02;;;;;;;12.88;4.97;;;9.50;99.90;;;;;;5107083;27;20118;-68
2022/11/10 03:46:28;;;;;;;17.58;4.88;;;9.50;99.90;;;;;;5094521;27;20061;-70
2022/11/10 03:48:54;;;;;;;24.38;6.43;;;9.40;99.90;;;;;;5107709;27;20481;-69
2022/11/10 03:51:20;;;;;;;18.08;5.28;;;9.40;99.90;;;;;;5090449;27;20115;-69
2022/11/10 03:53:46;;;;;;;18.98;5.05;;;9.40;99.90;;;;;;5106595;27;20047;-66
2022/11/10 03:56:12;;;;;;;19.20;5.60;;;9.40;99.90;;;;;;5108705;27;20047;-67
2022/11/10 03:58:37;;;;;;;22.63;5.53;;;9.40;99.90;;;;;;5110663;27;20510;-70
2022/11/10 04:01:03;;;;;;;19.48;5.38;;;9.40;99.90;;;;;;5103310;27;20051;-69
2022/11/10 04:03:28;;;;;;;19.77;5.78;;;9.40;99.90;;;;;;5105630;27;20031;-69
2022/11/10 04:16:50;;;;;;;25.52;5.80;;;9.40;99.90;;;;;;5103890;27;20035;-68
2022/11/10 04:19:16;;;;;;;19.02;5.72;;;9.40;99.90;;;;;;5111753;28;20039;-67
2022/11/10 04:21:41;;;;;;;22.77;5.10;;;9.40;99.90;;;;;;5108875;28;20092;-68
2022/11/10 04:24:08;;;;;;;22.25;5.50;;;9.40;99.90;;;;;;5106669;28;20040;-69
2022/11/10 04:26:37;;;;;;;17.90;5.40;;;9.40;99.90;;;;;;5106767;28;20485;-68
2022/11/10 04:29:05;;;;;;;18.80;5.47;;;9.40;99.90;;;;;;5107779;28;20038;-69
2022/11/10 04:31:34;;;;;;;21.48;6.47;;;9.40;99.90;;;;;;5108963;28;20122;-66
2022/11/10 04:34:00;;;;;;;21.85;5.60;;;9.40;99.90;;;;;;5106105;28;20451;-67
2022/11/10 04:36:30;;;;;;;18.52;6.18;;;9.40;99.90;;;;;;5082468;28;20042;-68
2022/11/10 04:38:56;;;;;;;21.38;6.45;;;9.40;99.90;;;;;;5108519;28;20039;-69
2022/11/10 04:41:22;;;;;;;22.65;6.68;;;9.40;99.90;;;;;;5107925;28;20046;-69
2022/11/10 04:43:48;;;;;;;21.25;6.82;;;9.40;99.90;;;;;;5105245;27;20046;-70
2022/11/10 04:46:22;;;;;;;19.13;6.50;;;9.40;99.90;;;;;;5104155;28;20035;-69
2022/11/10 04:48:48;;;;;;;21.63;6.57;;;9.40;99.90;;;;;;5110718;28;20031;-70
2022/11/10 04:51:15;;;;;;;25.00;7.10;;;9.40;99.90;;;;;;5107045;28;20089;-69
2022/11/10 04:53:41;;;;;;;25.35;6.88;;;9.40;99.90;;;;;;5087973;28;20468;-68
2022/11/10 04:56:08;;;;;;;25.35;6.40;;;9.40;99.90;;;;;;5088224;28;20059;-68
2022/11/10 04:58:34;;;;;;;27.90;7.88;;;9.40;99.90;;;;;;5108793;28;20047;-70
2022/11/10 05:01:00;;;;;;;18.17;6.78;;;9.40;99.90;;;;;;5109191;27;20039;-70
2022/11/10 05:03:25;;;;;;;22.08;7.40;;;9.50;99.90;;;;;;5109712;27;20043;-68
2022/11/10 05:05:51;;;;;;;24.25;6.85;;;9.50;99.90;;;;;;5079909;27;20479;-68
2022/11/10 05:08:17;;;;;;;24.30;7.32;;;9.50;99.90;;;;;;5107814;27;20126;-69
2022/11/10 05:10:42;;;;;;;16.42;6.32;;;9.50;99.90;;;;;;5118551;27;20119;-68
2022/11/10 05:13:09;;;;;;;22.00;7.00;;;9.50;99.90;;;;;;5110143;27;21923;-67
2022/11/10 05:15:34;;;;;;;24.33;7.35;;;9.50;99.90;;;;;;5112055;27;20042;-67
2022/11/10 05:18:00;;;;;;;24.98;7.50;;;9.50;99.90;;;;;;5110363;27;20031;-68
2022/11/10 05:20:26;;;;;;;22.25;7.40;;;9.50;99.90;;;;;;5114287;27;20032;-68
2022/11/10 05:25:39;;;;;;;26.65;8.15;;;9.50;99.90;;;;;;5112651;27;20107;-69
2022/11/10 05:28:06;;;;;;;26.08;8.07;;;9.60;99.90;;;;;;5092193;27;20397;-69
2022/11/10 05:30:34;;;;;;;28.98;7.38;;;9.60;99.90;;;;;;5109761;27;20099;-69
2022/11/10 05:33:01;;;;;;;25.92;7.72;;;9.60;99.90;;;;;;5095753;27;20043;-67
2022/11/10 05:35:27;;;;;;;24.90;7.25;;;9.60;99.90;;;;;;5113287;27;20081;-70
2022/11/10 05:37:52;;;;;;;24.08;7.13;;;9.60;99.90;;;;;;5111045;27;20381;-70
2022/11/10 05:40:18;;;;;;;24.33;6.72;;;9.60;99.90;;;;;;5105419;27;20551;-68
2022/11/10 05:42:51;;;;;;;23.08;6.93;;;9.50;99.90;;;;;;5112888;27;20035;-68
2022/11/10 05:45:22;;;;;;;25.02;6.88;;;9.50;99.90;;;;;;5107365;27;20086;-67
2022/11/10 05:47:48;;;;;;;24.33;7.93;;;9.50;99.90;;;;;;5112870;27;20057;-68
2022/11/10 05:50:14;;;;;;;24.95;7.35;;;9.50;99.90;;;;;;5111444;27;20493;-70
2022/11/10 05:52:45;;;;;;;23.92;7.10;;;9.50;99.90;;;;;;5106905;27;20068;-67
2022/11/10 05:55:12;;;;;;;24.80;6.65;;;9.50;99.90;;;;;;5108509;27;20498;-69
2022/11/10 05:57:37;;;;;;;21.02;6.13;;;9.50;99.90;;;;;;5113894;27;20047;-69
2022/11/10 06:00:06;;;;;;;20.77;6.95;;;9.50;99.90;;;;;;5105801;27;20477;-69
2022/11/10 06:02:32;;;;;;;25.67;7.32;;;9.50;99.90;;;;;;5127505;27;20094;-70
2022/11/10 06:04:58;;;;;;;26.27;7.78;;;9.40;99.90;;;;;;5088108;27;21793;-70
2022/11/10 06:07:23;;;;;;;23.25;7.72;;;9.50;99.90;;;;;;5108674;27;20049;-71
2022/11/10 06:09:49;;;;;;;27.55;7.78;;;9.40;99.90;;;;;;5080970;27;20058;-70
2022/11/10 06:12:15;;;;;;;23.52;6.97;;;9.50;99.90;;;;;;5098230;27;20035;-70
2022/11/10 06:14:40;;;;;;;29.55;7.22;;;9.40;99.90;;;;;;5108478;27;20046;-69
2022/11/10 06:17:06;;;;;;;25.75;7.28;;;9.40;99.90;;;;;;5114709;27;20058;-69
2022/11/10 06:19:31;;;;;;;17.50;6.55;;;9.40;99.90;;;;;;5111799;27;20489;-69
2022/11/10 06:21:57;;;;;;;25.63;7.35;;;9.40;99.90;;;;;;5113411;27;20039;-70
2022/11/10 06:24:23;;;;;;;22.25;7.07;;;9.40;99.90;;;;;;5109299;27;20043;-68
2022/11/10 06:26:48;;;;;;;30.67;8.70;;;9.40;99.90;;;;;;5112900;27;20035;-68
2022/11/10 06:29:14;;;;;;;21.88;7.13;;;9.40;99.90;;;;;;5108404;27;20054;-68
2022/11/10 06:31:40;;;;;;;22.73;7.35;;;9.40;99.90;;;;;;5108100;27;20130;-70
2022/11/10 06:34:05;;;;;;;28.02;8.60;;;9.40;99.90;;;;;;5096438;27;20104;-69
2022/11/10 06:36:31;;;;;;;25.27;8.13;;;9.40;99.90;;;;;;5112727;27;20054;-68
2022/11/10 06:38:56;;;;;;;19.40;7.45;;;9.40;99.90;;;;;;5113899;27;20035;-69
2022/11/10 06:41:22;;;;;;;26.15;7.82;;;9.40;99.90;;;;;;5096124;27;20286;-69
2022/11/10 06:43:48;;;;;;;26.55;7.78;;;9.40;99.90;;;;;;5113592;27;20042;-68
2022/11/10 06:46:13;;;;;;;26.42;8.27;;;9.40;99.90;;;;;;5096925;27;20047;-68
2022/11/10 06:48:39;;;;;;;21.27;7.28;;;9.40;99.90;;;;;;5109386;27;20058;-66
2022/11/10 06:51:05;;;;;;;23.17;7.57;;;9.40;99.90;;;;;;5113937;27;20587;-67
2022/11/10 06:53:31;;;;;;;21.70;8.38;;;9.40;99.90;;;;;;5109646;27;20054;-69
2022/11/10 06:55:56;;;;;;;26.42;7.68;;;9.40;99.90;;;;;;5104875;27;20043;-67
2022/11/10 06:58:22;;;;;;;23.35;8.38;;;9.40;99.90;;;;;;5112554;27;20470;-70
2022/11/10 07:00:47;;;;;;;24.98;8.82;;;9.40;99.90;;;;;;5113772;27;20072;-67
2022/11/10 07:03:14;;;;;;;29.23;8.88;;;9.40;99.90;;;;;;5112566;27;20039;-67
2022/11/10 07:05:40;;;;;;;28.00;8.73;;;9.40;99.90;;;;;;5109701;27;20410;-68
2022/11/10 07:08:09;;;;;;;22.35;8.35;;;9.40;99.90;;;;;;5110459;27;20117;-67
2022/11/10 07:10:36;;;;;;;22.08;8.43;;;9.40;99.90;;;;;;5112702;27;20051;-68
2022/11/10 07:13:03;;;;;;;26.25;9.27;;;9.50;99.90;;;;;;5106654;27;20042;-69
2022/11/10 07:15:29;;;;;;;23.13;8.98;;;9.40;99.90;;;;;;5113156;27;20087;-68
2022/11/10 07:17:55;;;;;;;24.33;9.30;;;9.50;99.90;;;;;;5096320;27;20049;-66
2022/11/10 07:20:21;;;;;;;25.30;10.48;;;9.60;99.90;;;;;;5132239;27;20118;-67
2022/11/10 07:22:47;;;;;;;41.42;9.18;;;9.60;99.90;;;;;;5105925;28;20035;-66
2022/11/10 07:25:13;;;;;;;27.38;8.57;;;9.60;99.90;;;;;;5108301;27;20050;-68
2022/11/10 07:27:38;;;;;;;22.17;9.20;;;9.60;99.90;;;;;;5105408;27;20035;-67
2022/11/10 07:30:05;;;;;;;22.13;9.07;;;9.70;99.90;;;;;;5105738;27;20111;-69
2022/11/10 07:32:31;;;;;;;28.38;9.68;;;9.70;99.90;;;;;;5112798;27;20092;-67
2022/11/10 07:34:56;;;;;;;24.00;8.57;;;9.70;99.90;;;;;;5096026;27;20413;-68
2022/11/10 07:37:22;;;;;;;22.02;8.15;;;9.70;99.90;;;;;;5112521;27;20035;-68
2022/11/10 07:39:48;;;;;;;23.42;8.73;;;9.70;99.90;;;;;;5113590;27;20078;-69
2022/11/10 07:42:14;;;;;;;20.85;8.13;;;9.70;99.90;;;;;;5096620;27;20114;-68
2022/11/10 07:44:40;;;;;;;26.30;7.90;;;9.70;99.90;;;;;;5112709;27;20093;-67
2022/11/10 07:47:05;;;;;;;19.58;7.18;;;9.70;99.90;;;;;;5113282;27;20446;-68
2022/11/10 07:49:31;;;;;;;23.08;7.78;;;9.70;99.90;;;;;;5113030;27;20046;-68
2022/11/10 07:51:57;;;;;;;21.67;8.50;;;9.80;99.90;;;;;;5113479;27;20401;-69
2022/11/10 07:54:22;;;;;;;20.13;7.55;;;9.80;99.90;;;;;;5113331;27;20489;-68
2022/11/10 07:56:48;;;;;;;23.33;7.07;;;9.80;99.90;;;;;;5113021;27;20046;-68
2022/11/10 07:59:13;;;;;;;24.80;7.47;;;9.80;99.90;;;;;;5113301;27;20031;-68
2022/11/10 08:01:39;;;;;;;17.52;6.90;;;9.90;99.90;;;;;;5113027;27;20167;-68
2022/11/10 08:04:05;;;;;;;22.80;7.25;;;9.90;99.90;;;;;;5131604;27;20416;-66
2022/11/10 08:06:31;;;;;;;24.55;7.63;;;10.00;99.90;;;;;;5111508;27;20035;-69
2022/11/10 08:08:56;;;;;;;24.52;7.90;;;10.00;99.90;;;;;;5113454;27;20114;-67
2022/11/10 08:11:22;;;;;;;20.20;6.75;;;10.10;99.90;;;;;;5112838;27;20172;-68
2022/11/10 08:13:48;;;;;;;19.83;6.47;;;10.20;99.90;;;;;;5131151;27;20071;-68
2022/11/10 08:16:13;;;;;;;20.80;7.07;;;10.20;99.90;;;;;;5112878;28;20035;-68
2022/11/10 08:18:39;;;;;;;16.30;6.07;;;10.20;99.90;;;;;;5112779;27;20031;-69
2022/11/10 08:21:05;;;;;;;23.45;6.55;;;10.30;99.90;;;;;;5112972;28;20471;-68
2022/11/10 08:23:31;;;;;;;16.38;5.40;;;10.40;99.90;;;;;;5112870;28;20039;-69
2022/11/10 08:25:58;;;;;;;24.50;6.32;;;10.60;99.90;;;;;;5112692;28;20081;-68
2022/11/10 08:28:25;;;;;;;22.60;5.68;;;10.70;99.90;;;;;;5110801;28;20527;-69
2022/11/10 08:30:50;;;;;;;20.02;5.40;;;10.80;99.90;;;;;;5095200;28;20498;-67
2022/11/10 08:33:18;;;;;;;20.77;6.18;;;11.00;99.90;;;;;;5112972;28;20059;-67
2022/11/10 08:35:46;;;;;;;23.50;6.75;;;11.10;99.90;;;;;;5115430;27;20042;-68
2022/11/10 08:38:20;;;;;;;16.65;5.03;;;11.10;99.90;;;;;;5116593;27;20043;-70
2022/11/10 08:40:47;;;;;;;14.70;5.72;;;11.30;99.90;;;;;;5116639;27;20051;-67
2022/11/10 08:43:13;;;;;;;15.57;5.28;;;11.30;99.90;;;;;;5116840;27;20046;-70
2022/11/10 08:45:41;;;;;;;18.20;5.35;;;11.40;99.90;;;;;;5099718;27;20080;-68
2022/11/10 08:48:12;;;;;;;28.88;6.35;;;11.40;99.90;;;;;;5116567;27;20050;-68
2022/11/10 08:50:38;;;;;;;21.15;6.10;;;11.50;99.90;;;;;;5116770;27;20035;-69
2022/11/10 08:53:06;;;;;;;20.40;6.03;;;11.50;99.90;;;;;;5116457;27;20043;-68
2022/11/10 08:55:32;;;;;;;17.25;4.80;;;11.50;99.90;;;;;;5098164;27;20122;-69
2022/11/10 08:58:00;;;;;;;20.65;5.05;;;11.50;99.90;;;;;;5099910;27;20174;-68
2022/11/10 09:00:27;;;;;;;21.40;4.88;;;11.60;99.90;;;;;;5116539;27;20088;-68
2022/11/10 09:03:01;;;;;;;21.67;5.20;;;11.60;99.90;;;;;;5116565;27;20447;-68
2022/11/10 09:05:27;;;;;;;20.98;5.22;;;11.60;99.90;;;;;;5116858;27;20039;-66
2022/11/10 09:07:52;;;;;;;15.23;4.25;;;11.60;99.90;;;;;;5116392;27;20088;-67
2022/11/10 09:10:18;;;;;;;18.45;4.90;;;11.70;99.90;;;;;;5116425;27;20042;-67
2022/11/10 09:12:44;;;;;;;19.92;5.57;;;11.70;99.90;;;;;;5116052;27;20121;-67
2022/11/10 09:15:10;;;;;;;16.80;4.85;;;11.80;99.90;;;;;;5116073;27;20043;-69
2022/11/10 09:17:36;;;;;;;18.63;5.07;;;11.90;99.90;;;;;;5099306;27;20393;-68
2022/11/10 09:20:04;;;;;;;20.58;6.78;;;12.00;99.90;;;;;;5098803;27;20122;-68
2022/11/10 09:22:30;;;;;;;28.13;8.48;;;12.10;99.90;;;;;;5116135;27;20043;-69
2022/11/10 09:24:55;;;;;;;31.23;10.40;;;12.20;99.90;;;;;;5098851;27;20538;-67
2022/11/10 09:27:21;;;;;;;28.73;9.85;;;12.30;99.90;;;;;;5111816;27;20184;-68
2022/11/10 09:29:47;;;;;;;27.73;9.50;;;12.40;99.90;;;;;;5116010;27;20043;-67
2022/11/10 09:32:12;;;;;;;28.45;9.73;;;12.60;99.90;;;;;;5116069;27;20050;-68
2022/11/10 09:34:38;;;;;;;26.65;9.18;;;12.70;99.90;;;;;;5098233;27;20055;-67
2022/11/10 09:37:04;;;;;;;24.55;8.90;;;12.70;99.90;;;;;;5115707;27;20067;-68
2022/11/10 09:39:29;;;;;;;23.77;7.60;;;12.80;99.90;;;;;;5116082;27;20039;-69
2022/11/10 09:41:55;;;;;;;25.40;7.70;;;13.00;99.90;;;;;;5115697;27;20039;-71
2022/11/10 09:44:29;;;;;;;22.95;6.60;;;13.10;99.90;;;;;;5115520;27;20123;-67
2022/11/10 09:47:13;;;;;;;19.08;6.13;;;13.30;99.90;;;;;;5114561;27;20031;-70
2022/11/10 09:49:45;;;;;;;25.98;6.72;;;13.40;99.90;;;;;;5115791;27;20397;-67
2022/11/10 09:52:12;;;;;;;14.93;4.88;;;13.50;99.90;;;;;;5115467;27;20046;-69
2022/11/10 09:54:50;;;;;;;19.10;4.93;;;13.50;99.90;;;;;;5115406;27;20080;-69
2022/11/10 09:57:19;;;;;;;15.05;4.10;;;13.40;99.90;;;;;;5115539;27;20042;-69
2022/11/10 09:59:45;;;;;;;16.42;4.28;;;13.20;99.90;;;;;;5098255;27;20042;-68
2022/11/10 10:02:36;;;;;;;18.00;3.80;;;13.20;99.90;;;;;;5114995;27;20389;-68
2022/11/10 10:05:02;;;;;;;16.02;4.53;;;13.30;99.90;;;;;;5115453;27;20168;-68
2022/11/10 10:07:42;;;;;;;12.20;3.10;;;13.50;99.90;;;;;;5115180;27;20500;-70
2022/11/10 10:10:19;;;;;;;18.73;3.28;;;13.70;99.90;;;;;;5115059;27;20152;-69
2022/11/10 10:13:07;;;;;;;15.73;3.30;;;13.90;99.90;;;;;;5115403;27;20085;-67
2022/11/10 10:15:57;;;;;;;16.88;3.85;;;13.90;99.90;;;;;;5115268;27;20039;-68
2022/11/10 10:19:01;;;;;;;15.15;3.33;;;14.20;99.90;;;;;;5113602;27;20122;-68
2022/11/10 10:21:51;;;;;;;14.43;3.45;;;14.20;99.90;;;;;;5115252;27;20482;-68
2022/11/10 10:24:19;;;;;;;15.98;3.08;;;14.20;99.90;;;;;;5110552;27;20478;-69
2022/11/10 10:26:54;;;;;;;14.07;2.67;;;14.30;99.90;;;;;;5097903;27;20043;-69
2022/11/10 10:29:29;;;;;;;13.93;2.40;;;14.60;99.90;;;;;;5098071;27;20036;-67
2022/11/10 10:31:57;;;;;;;16.27;3.05;;;14.60;99.90;;;;;;5115032;27;20047;-70
2022/11/10 10:34:29;;;;;;;13.30;3.35;;;14.90;99.90;;;;;;5115490;27;20477;-70
2022/11/10 10:36:55;;;;;;;16.38;3.00;;;14.70;99.90;;;;;;5098051;27;20035;-70
2022/11/10 10:39:46;;;;;;;12.82;2.90;;;14.40;99.90;;;;;;5115013;27;20504;-67
2022/11/10 10:42:28;;;;;;;16.85;3.25;;;14.20;99.90;;;;;;5114056;27;20133;-69
2022/11/10 10:45:13;;;;;;;12.98;2.92;;;13.90;99.90;;;;;;5114753;27;20040;-69
2022/11/10 10:47:39;;;;;;;23.38;3.58;;;14.00;99.90;;;;;;5114745;27;20157;-68
2022/11/10 10:50:20;;;;;;;14.75;3.35;;;14.10;99.90;;;;;;5114826;27;20055;-69
2022/11/10 10:53:05;;;;;;;16.65;3.17;;;14.20;99.90;;;;;;5133079;27;20442;-69
2022/11/10 10:55:32;;;;;;;16.15;3.33;;;14.30;99.90;;;;;;5097698;27;20122;-68
2022/11/10 10:58:04;;;;;;;14.23;2.65;;;14.40;99.90;;;;;;5114244;27;20031;-68
2022/11/10 11:00:30;;;;;;;13.30;2.65;;;14.60;99.90;;;;;;5114330;27;20035;-67
2022/11/10 11:03:05;;;;;;;15.15;3.95;;;14.80;99.90;;;;;;5114751;27;20487;-69
2022/11/10 11:05:31;;;;;;;18.27;3.08;;;14.90;99.90;;;;;;5097349;27;20051;-68
2022/11/10 11:07:59;;;;;;;16.63;3.35;;;14.90;99.90;;;;;;5114295;27;20164;-68
2022/11/10 11:10:31;;;;;;;11.98;3.00;;;14.90;99.90;;;;;;5114380;27;20054;-69
2022/11/10 11:13:20;;;;;;;18.13;3.40;;;14.80;99.90;;;;;;5096714;27;20039;-68
2022/11/10 11:16:01;;;;;;;16.15;3.22;;;14.70;99.90;;;;;;5114046;27;20104;-68
2022/11/10 11:18:29;;;;;;;21.10;3.72;;;14.80;99.90;;;;;;5114302;27;20401;-67
2022/11/10 11:21:09;;;;;;;14.82;3.17;;;14.70;99.90;;;;;;5113813;27;20035;-68
2022/11/10 11:23:40;;;;;;;16.83;4.10;;;14.70;99.90;;;;;;5113840;27;20047;-69
2022/11/10 11:26:35;;;;;;;15.65;2.47;;;14.50;99.90;;;;;;5097042;27;20035;-68
2022/11/10 11:29:18;;;;;;;14.25;2.67;;;14.30;99.90;;;;;;5012412;28;20049;-68
2022/11/10 11:32:15;;;;;;;17.73;3.13;;;14.20;99.90;;;;;;5012304;28;20057;-69
2022/11/10 11:35:01;;;;;;;15.18;2.80;;;14.10;99.90;;;;;;5012564;28;20045;-67
2022/11/10 11:38:06;;;;;;;15.45;2.65;;;14.00;99.90;;;;;;5012673;28;20497;-68
2022/11/10 11:40:47;;;;;;;12.48;2.90;;;13.90;99.90;;;;;;5007167;28;20103;-68
2022/11/10 11:43:24;;;;;;;12.77;3.03;;;13.90;99.90;;;;;;5011108;28;20029;-68
2022/11/10 11:46:17;;;;;;;16.25;2.78;;;13.90;99.90;;;;;;5012224;28;20088;-70
2022/11/10 11:49:16;;;;;;;16.13;3.15;;;14.00;99.90;;;;;;5012483;28;20042;-68
2022/11/10 11:52:04;;;;;;;18.17;2.53;;;13.90;99.90;;;;;;5012490;28;20053;-69
2022/11/10 11:54:35;;;;;;;15.13;3.15;;;13.90;99.90;;;;;;5012027;28;20077;-70
2022/11/10 11:57:20;;;;;;;16.67;3.10;;;13.90;99.90;;;;;;5011835;28;20124;-68
2022/11/10 12:00:11;;;;;;;15.10;3.30;;;13.90;99.90;;;;;;4995230;28;20056;-68
2022/11/10 12:02:40;;;;;;;14.10;2.53;;;13.90;99.90;;;;;;4953596;28;20042;-69
2022/11/10 12:05:05;;;;;;;12.30;2.55;;;13.90;99.90;;;;;;4964520;28;20044;-68
2022/11/10 12:07:41;;;;;;;17.33;3.15;;;13.90;99.90;;;;;;5030178;28;20063;-70
2022/11/10 12:10:22;;;;;;;18.70;3.33;;;13.90;99.90;;;;;;5046015;28;20045;-68
2022/11/10 12:13:16;;;;;;;13.40;2.75;;;13.90;99.90;;;;;;5031327;28;20086;-68
2022/11/10 12:16:14;;;;;;;14.10;3.75;;;13.90;99.90;;;;;;5031304;28;20045;-67
2022/11/10 12:18:50;;;;;;;17.95;3.42;;;13.90;99.90;;;;;;5031502;28;20517;-69
2022/11/10 12:21:15;;;;;;;16.38;2.65;;;13.90;99.90;;;;;;5031165;28;20051;-69
2022/11/10 12:24:27;;;;;;;15.63;2.42;;;13.90;99.90;;;;;;5031128;28;20119;-68
2022/11/10 12:27:02;;;;;;;14.25;2.53;;;13.90;99.90;;;;;;5031033;28;20536;-68
2022/11/10 12:29:32;;;;;;;13.63;2.38;;;13.90;99.90;;;;;;5030150;28;20077;-67
2022/11/10 12:32:08;;;;;;;15.60;2.40;;;13.90;99.90;;;;;;5047802;28;20415;-67
2022/11/10 12:34:43;;;;;;;14.07;2.10;;;13.90;99.90;;;;;;5030772;28;20111;-67
2022/11/10 12:37:29;;;;;;;14.88;2.10;;;14.00;99.90;;;;;;5030834;28;20033;-69
2022/11/10 12:40:18;;;;;;;12.52;2.33;;;14.10;99.90;;;;;;5083206;28;20594;-67
2022/11/10 12:42:49;;;;;;;14.75;2.30;;;14.40;99.90;;;;;;5112659;28;20063;-69
2022/11/10 12:45:17;;;;;;;13.70;2.60;;;14.60;99.90;;;;;;5112962;28;20432;-69
2022/11/10 12:47:45;;;;;;;11.30;2.28;;;14.70;99.90;;;;;;5112782;28;20103;-67
2022/11/10 12:50:26;;;;;;;14.48;2.55;;;14.60;99.90;;;;;;5112448;28;20039;-69
2022/11/10 12:53:00;;;;;;;10.93;2.10;;;14.70;99.90;;;;;;5112702;28;20053;-68
2022/11/10 12:55:36;;;;;;;17.75;2.63;;;14.70;99.90;;;;;;5095687;28;20054;-69
2022/11/10 12:58:04;;;;;;;16.98;2.92;;;14.70;99.90;;;;;;5112354;28;20043;-68
2022/11/10 13:00:36;;;;;;;10.93;1.95;;;14.70;99.90;;;;;;5112850;28;20393;-68
2022/11/10 13:03:02;;;;;;;15.65;3.03;;;14.80;99.90;;;;;;5110602;28;20035;-69
2022/11/10 13:05:50;;;;;;;12.52;3.40;;;14.70;99.90;;;;;;5112590;28;20043;-70
2022/11/10 13:08:19;;;;;;;17.75;2.67;;;14.60;99.90;;;;;;5111977;28;20039;-69
2022/11/10 13:10:50;;;;;;;16.42;2.95;;;14.40;99.90;;;;;;5112511;28;20075;-69